Grand Coteau, LA (70541)

2:56 AM CDT on September 03, 2015 (GMT -0500)
Lastrapes Garden Center | | Change Station
CLOSE
Current Station
Personal Weather Station
Location: Opelousas, LA
Elevation: 52 ft
Nearby Weather Stations

Elev 52 ft 30.47 °N, 92.08 °W | Updated 1 minute ago

Clear
Clear
73.5 °F
Feels Like 73.5 °F
N
0.0
Wind Variable Wind from ESE
Gusts 2.0 mph

Today
High -- | Low -- °F
--% Chance of Precip.
Yesterday
High -- | Low -- °F
Precip. -- in
6:45 AM 7:28 PM
Waning Gibbous, 72% visible
Pressure 29.97 in
Visibility 5.0 miles
Clouds Clear
Dew Point 73 °F
Humidity 99%
Rainfall 0.00 in
Snow Depth Not available.
UV 0 out of 12
Pollen 8.00 out of 12
Air Quality Not available.
Flu Activity Not available.
METAR KOPL 030735Z AUTO 00000KT 5SM BR CLR 22/22 A2997 RMK AO2 T02200218
Pressure 29.97 in
Visibility 5.0 miles
Clouds Clear
Dew Point 73 °F
Humidity 99%
Rainfall 0.00 in
Snow Depth Not available.
UV 0 out of 12
Pollen 8.00 out of 12
Air Quality Not available.
Flu Activity Not available.
METAR KOPL 030735Z AUTO 00000KT 5SM BR CLR 22/22 A2997 RMK AO2 T02200218

10-Day Weather Forecast

×

Almanac

Astronomy

Sep. 03, 2015 Rise Set
Actual Time
Civil Twilight
Nautical Twilight
Astronomical Twilight
Moon
Length of Visible Light
Length of Day
Tomorrow will be .
, % of the Moon is Illuminated

Today's Extremes

State Highs State Lows

Community

WunderPhotos

Upload Photos

1,851,919 photos uploaded!

WunderBlogs® & News

Nearby

Air Quality

  Air Quality AQ Index Pollutant
Not available.

Snow Depth

Station Depth Elevation

Earthquake Activity

City Distance Mag. Time & Date
Minimum magnitude displayed is 2.5.

Coastal Water Temperatures

Place Temperature

Stations

Nearby Weather Stations

Station Location Temp. Windchill Dew Point Humidity Wind Precip. Elev Updated Type